Observations for NORWICH WEA CNTRE, United Kingdom (EGSH)

EGSH 140820Z 26007KT 9999 SCT010 BKN015 17/15 Q1014 NOSIG   
EGSH 140750Z 27008KT 9999 SCT010 BKN015 17/15 Q1014 NOSIG   
EGSH 140720Z 27009KT 9999 BKN018 17/15 Q1014 NOSIG  
EGSH 140650Z 28009KT 9999 FEW010 SCT020 16/14 Q1014 NOSIG   
EGSH 140620Z 27008KT 240V310 9999 FEW012 SCT022 16/15 Q1013 NOSIG   
EGSH 140550Z 26007KT 9999 SCT012 SCT029 16/15 Q1013 TEMPO BKN012
EGSH 140520Z 27006KT 9999 SCT012 BKN033 16/15 Q1013 TEMPO BKN009
EGSH 140450Z 27006KT 9999 BKN030 16/14 Q1012 TEMPO 4000 BR BKN009   
EGSH 140420Z 28005KT 260V330 9999 FEW011 BKN030 16/15 Q1012 TEMPO 4000 BR BKN006
EGSH 140350Z AUTO 27007KT 9999 BKN009/// OVC033/// 17/15 Q1012  
EGSH 140320Z AUTO 29009KT 260V320 9999 BKN006/// BKN010/// OVC015/// 17/16 Q1012
EGSH 140250Z AUTO 28005KT 9999 OVC014/// 17/16 Q1011
EGSH 140220Z AUTO 28005KT 9999 OVC014/// 17/16 Q1011
EGSH 140150Z AUTO 28006KT 9999 BKN014/// OVC018/// 17/16 Q1011  
EGSH 140120Z AUTO 28005KT 9999 BKN014/// BKN023/// 17/16 Q1011  
EGSH 140050Z AUTO 29005KT 260V320 9999 BKN015/// OVC020/// 17/16 Q1011  
EGSH 140020Z AUTO 29004KT 260V320 9999 FEW006/// SCT010/// OVC019/// 17/16 Q1010
EGSH 132350Z AUTO 30004KT 270V340 9999 BKN005/// OVC023/// 17/16 Q1010  
EGSH 132320Z AUTO 34004KT 300V030 9999 BKN006/// OVC009/// 17/16 Q1010  
EGSH 132250Z AUTO 31004KT 280V360 9999 SCT004/// BKN007/// OVC011/// 17/17 Q1010
EGSH 132220Z AUTO 30004KT 270V330 6000 BKN005/// OVC008/// 17/17 Q1009  
EGSH 132150Z AUTO 27004KT 5000 BR BKN018/// 16/16 Q1009 
EGSH 132120Z AUTO 26004KT 9999 FEW020/// 16/15 Q1009
EGSH 132050Z 28005KT 9999 SCT024 17/16 Q1009 NOSIG  
EGSH 132020Z 27006KT 9999 FEW024 17/16 Q1009 NOSIG  
EGSH 131950Z 27005KT 9999 FEW024 17/16 Q1008 NOSIG  
EGSH 131920Z 28006KT 9999 FEW020TCU 18/17 Q1008 NOSIG   
EGSH 131850Z 27005KT 9999 FEW020TCU 18/17 Q1007 NOSIG   
EGSH 131820Z 28004KT 260V320 9999 FEW016TCU 19/18 Q1007 NOSIG   
EGSH 131750Z 27007KT 9999 FEW020 BKN031CB 19/18 Q1007 RESHRA NOSIG  
EGSH 131720Z 27008KT 250V310 8000 2500E SHRA SCT027CB 19/17 Q1007 TEMPO NSW 
EGSH 131650Z 25004KT 9999 VCSH SCT023CB 19/18 Q1006 TEMPO SHRA  
EGSH 131620Z 27005KT 240V310 9999 -SHRA FEW015 SCT032CB 20/18 Q1006 TEMPO SHRA  
EGSH 131550Z VRB05KT 9999 -SHRA FEW015 SCT021 BKN033CB 20/18 Q1006 TEMPO SHRA   
EGSH 131520Z 10004KT 070V160 9999 -SHRA FEW015 SCT021 BKN033CB 20/18 Q1006 TEMPO SHRA   
EGSH 131450Z 11004KT 070V190 9999 VCSH FEW022 SCT031CB 21/18 Q1006 TEMPO SHRA   
EGSH 131420Z VRB02KT 9999 7000S VCSH FEW017 BKN025CB 20/18 Q1006 RESHRA TEMPO SHRA  
EGSH 131350Z 32006KT 250V040 9999 4000W SHRA FEW022TCU BKN028CB 21/16 Q1005 TEMPO NSW   
EGSH 131320Z 29005KT 230V010 9999 FEW020 SCT025TCU 21/16 Q1005 TEMPO SHRA   
EGSH 131250Z 30007KT 240V350 9999 -SHRA BKN024TCU 20/16 Q1005 TEMPO SHRA
EGSH 131220Z 26007KT 230V290 9999 SCT020 BKN030 21/17 Q1005 TEMPO 6000 SHRA 
EGSH 131150Z 26007KT 230V290 9999 -SHRA FEW006 SCT016 BKN026 19/17 Q1005 TEMPO SHRA 
EGSH 131120Z 25005KT 200V280 9999 SCT016 BKN026 20/16 Q1005 NOSIG   
EGSH 131050Z 24005KT 200V270 9999 SCT016 BKN026 20/16 Q1005 NOSIG   
EGSH 131020Z VRB03KT 9999 SCT016 BKN027 19/16 Q1005 NOSIG   
EGSH 130950Z 24005KT 190V350 9999 FEW013 BKN017 19/16 Q1005 NOSIG   
EGSH 130920Z 24004KT 180V290 9999 FEW012 SCT017 19/16 Q1005 NOSIG   
EGSH 130850Z VRB03KT 9999 FEW009 SCT014 19/15 Q1005 NOSIG   
EGSH 130820Z 28005KT 240V320 9999 FEW009 SCT014 18/16 Q1005 NOSIG   
EGSH 130750Z 28004KT 240V340 9000 SCT009 18/16 Q1005 TEMPO BKN009